Time;durP1;ratioP1;P1;durP2;ratioP2;P2;SDS_P1;SDS_P2;PMS_P1;PMS_P2;Temp;Humidity;BMP_temperature;BMP_pressure;BME280_temperature;BME280_humidity;BME280_pressure;Samples;Min_cycle;Max_cycle;Signal;HPM_P1;HPM_P2
2023/07/10 00:01:32;;;;;;;9.00;5.78;;;;;;;21.08;79.85;101800.47;7392543;19;20049;-58
2023/07/10 00:03:59;;;;;;;9.95;5.35;;;;;;;21.21;79.13;101800.03;7394683;19;20299;-59
2023/07/10 00:06:27;;;;;;;9.25;5.68;;;;;;;21.14;79.68;101806.09;7392395;19;20078;-57
2023/07/10 00:08:54;;;;;;;8.80;6.07;;;;;;;20.98;80.80;101795.16;7394065;19;20019;-58
2023/07/10 00:11:28;;;;;;;7.93;5.32;;;;;;;21.19;79.90;101800.22;7392797;19;20035;-59
2023/07/10 00:13:56;;;;;;;8.45;5.80;;;;;;;21.27;79.60;101797.56;7391550;19;20021;-62
2023/07/10 00:16:26;;;;;;;9.65;6.07;;;;;;;21.26;79.26;101792.34;7391018;19;20022;-62
2023/07/10 00:18:53;;;;;;;10.05;6.10;;;;;;;21.20;80.07;101787.59;7392814;19;20017;-62
2023/07/10 00:21:20;;;;;;;10.73;6.07;;;;;;;21.19;79.71;101789.44;7390726;19;20014;-60
2023/07/10 00:23:48;;;;;;;9.75;6.40;;;;;;;21.21;79.82;101789.28;7392288;19;20039;-62
2023/07/10 00:26:22;;;;;;;8.93;5.97;;;;;;;21.23;79.91;101796.19;7390224;19;20035;-49
2023/07/10 00:28:53;;;;;;;8.20;5.65;;;;;;;21.31;79.51;101801.66;7392782;19;20015;-60
2023/07/10 00:31:21;;;;;;;8.98;5.68;;;;;;;21.32;79.16;101797.94;7392469;19;20018;-60
2023/07/10 00:33:48;;;;;;;9.15;5.78;;;;;;;21.30;79.42;101796.44;7392330;19;20035;-60
2023/07/10 00:36:31;;;;;;;10.85;6.00;;;;;;;21.30;79.33;101818.81;7391083;19;20102;-60
2023/07/10 00:39:09;;;;;;;9.98;5.68;;;;;;;21.24;79.63;101822.13;7392573;19;20235;-63
2023/07/10 00:41:38;;;;;;;11.68;5.80;;;;;;;21.20;79.74;101819.91;7391174;19;20082;-62
2023/07/10 00:44:06;;;;;;;9.13;5.88;;;;;;;21.21;80.03;101821.59;7391633;19;20538;-62
2023/07/10 00:46:49;;;;;;;9.18;6.00;;;;;;;21.21;79.80;101824.28;7389634;19;20456;-62
2023/07/10 00:49:27;;;;;;;;;;;;;;;21.05;81.22;101823.16;7392624;19;20014;-63
2023/07/10 00:52:02;;;;;;;9.00;5.22;;;;;;;21.13;80.73;101831.31;7390492;19;19926;-62
2023/07/10 00:54:37;;;;;;;9.65;5.72;;;;;;;21.22;80.25;101831.41;7391892;19;20014;-62
2023/07/10 00:57:13;;;;;;;9.40;5.65;;;;;;;21.23;79.61;101855.47;7391400;19;20089;-62
2023/07/10 00:59:42;;;;;;;7.80;5.20;;;;;;;21.15;80.27;101867.03;7392018;19;20015;-62
2023/07/10 01:02:12;;;;;;;8.75;5.50;;;;;;;21.20;79.98;101871.94;7390298;19;20508;-62
2023/07/10 01:04:42;;;;;;;9.15;6.00;;;;;;;21.24;80.07;101873.34;7390985;19;20018;-63
2023/07/10 01:07:14;;;;;;;10.25;5.60;;;;;;;21.27;80.48;101883.81;7389841;19;20094;-63
2023/07/10 01:09:49;;;;;;;9.15;5.85;;;;;;;21.25;80.19;101884.94;7391527;19;20031;-62
2023/07/10 01:12:18;;;;;;;8.63;5.70;;;;;;;21.31;80.21;101887.03;7389984;19;20014;-62
2023/07/10 01:14:45;;;;;;;10.77;7.40;;;;;;;21.35;80.05;101897.38;7389622;19;20027;-62
2023/07/10 01:17:12;;;;;;;11.77;7.53;;;;;;;21.40;79.74;101900.44;7390890;19;20026;-61
2023/07/10 01:19:41;;;;;;;11.63;8.70;;;;;;;21.37;79.92;101894.53;7390855;19;20098;-62
2023/07/10 01:22:11;;;;;;;10.88;7.97;;;;;;;21.34;79.59;101895.69;7389699;19;20492;-63
2023/07/10 01:24:38;;;;;;;13.32;9.35;;;;;;;21.37;79.83;101897.25;7390363;19;20015;-63
2023/07/10 01:27:11;;;;;;;12.65;10.02;;;;;;;21.32;79.93;101900.34;7390540;19;20038;-63
2023/07/10 01:29:46;;;;;;;11.65;9.02;;;;;;;21.32;79.98;101900.34;7390898;19;20047;-63
2023/07/10 01:32:17;;;;;;;13.38;10.75;;;;;;;21.27;79.76;101894.59;7390820;19;20022;-63
2023/07/10 01:34:52;;;;;;;13.73;9.85;;;;;;;21.25;80.34;101898.41;7390055;19;20022;-63
2023/07/10 01:37:19;;;;;;;12.55;10.38;;;;;;;21.22;80.08;101885.28;7393419;19;20022;-63
2023/07/10 01:39:50;;;;;;;14.10;10.23;;;;;;;21.16;80.33;101870.56;7390468;19;20039;-63
2023/07/10 01:42:17;;;;;;;13.88;9.82;;;;;;;21.17;80.25;101883.03;7389430;19;20031;-57
2023/07/10 01:44:46;;;;;;;13.00;9.75;;;;;;;21.19;79.99;101889.13;7390240;19;20018;-61
2023/07/10 01:47:15;;;;;;;14.25;10.82;;;;;;;21.18;79.88;101890.13;7389846;19;20537;-60
2023/07/10 01:49:48;;;;;;;15.10;11.55;;;;;;;21.22;79.97;101882.59;7389984;19;20493;-60
2023/07/10 01:52:19;;;;;;;12.07;10.25;;;;;;;21.26;79.64;101876.72;7390480;19;20019;-60
2023/07/10 01:54:46;;;;;;;13.05;10.45;;;;;;;21.24;79.96;101861.72;7389281;19;20022;-60
2023/07/10 01:57:15;;;;;;;15.00;11.90;;;;;;;21.26;79.63;101865.09;7389530;19;20014;-62
2023/07/10 01:59:42;;;;;;;15.15;10.68;;;;;;;21.27;79.75;101854.16;7389803;19;20018;-58
2023/07/10 02:02:10;;;;;;;14.98;10.43;;;;;;;21.28;79.51;101857.69;7389010;19;20022;-59
2023/07/10 02:04:37;;;;;;;14.18;10.23;;;;;;;21.26;79.91;101857.88;7392608;19;20025;-59
2023/07/10 02:07:04;;;;;;;12.68;10.15;;;;;;;21.31;79.50;101857.41;7396786;19;20412;-66
2023/07/10 02:09:32;;;;;;;16.75;11.65;;;;;;;21.27;80.48;101851.47;7397393;19;20018;-62
2023/07/10 02:12:00;;;;;;;14.48;10.40;;;;;;;21.25;80.59;101852.63;7397570;19;20039;-61
2023/07/10 02:14:29;;;;;;;14.23;11.48;;;;;;;21.19;80.49;101859.50;7397449;19;20011;-61
2023/07/10 02:16:56;;;;;;;17.35;14.07;;;;;;;21.18;80.54;101847.88;7396541;19;20015;-61
2023/07/10 02:19:23;;;;;;;19.23;13.07;;;;;;;21.20;79.98;101853.09;7397019;19;20014;-61
2023/07/10 02:21:50;;;;;;;19.05;14.38;;;;;;;21.19;80.33;101848.72;7394260;19;20019;-61
2023/07/10 02:24:18;;;;;;;16.63;14.05;;;;;;;21.17;80.33;101843.47;7397358;19;20033;-61
2023/07/10 02:26:45;;;;;;;16.38;12.85;;;;;;;21.19;79.68;101848.72;7393286;19;20093;-61
2023/07/10 02:29:12;;;;;;;19.08;12.98;;;;;;;21.18;79.66;101839.78;7397203;19;20019;-61
2023/07/10 02:31:39;;;;;;;17.88;12.75;;;;;;;21.20;79.79;101830.69;7396361;19;20015;-61
2023/07/10 02:34:07;;;;;;;15.85;12.10;;;;;;;21.09;79.67;101832.63;7396611;19;20024;-61
2023/07/10 02:36:34;;;;;;;15.23;12.13;;;;;;;21.09;80.32;101834.47;7394982;19;20089;-61
2023/07/10 02:39:02;;;;;;;16.33;11.93;;;;;;;20.94;80.57;101837.72;7396871;19;20078;-61
2023/07/10 02:41:29;;;;;;;14.93;11.57;;;;;;;20.92;80.83;101823.56;7393954;19;20043;-61
2023/07/10 02:43:56;;;;;;;16.15;10.88;;;;;;;20.90;80.89;101822.84;7394993;19;20014;-60
2023/07/10 02:46:24;;;;;;;16.48;11.02;;;;;;;20.94;80.35;101826.94;7392802;19;20043;-61
2023/07/10 02:48:51;;;;;;;15.00;10.15;;;;;;;21.00;80.53;101819.25;7395976;19;20018;-61
2023/07/10 02:51:18;;;;;;;15.60;11.25;;;;;;;21.03;79.88;101817.09;7396009;19;20019;-60
2023/07/10 02:53:46;;;;;;;15.05;10.43;;;;;;;20.89;80.59;101825.72;7395744;19;20011;-61
2023/07/10 02:56:13;;;;;;;14.35;10.95;;;;;;;20.86;80.78;101836.78;7393172;19;20029;-61
2023/07/10 02:58:40;;;;;;;13.95;10.38;;;;;;;20.88;80.51;101837.50;7395767;19;20030;-61
2023/07/10 03:01:07;;;;;;;15.18;10.93;;;;;;;20.90;80.62;101830.94;7395157;19;20703;-60
2023/07/10 03:03:35;;;;;;;13.00;9.43;;;;;;;21.01;80.71;101834.41;7394365;19;20098;-60
2023/07/10 03:06:02;;;;;;;17.02;12.18;;;;;;;20.92;80.99;101844.28;7393220;19;20022;-61
2023/07/10 03:08:30;;;;;;;15.25;11.77;;;;;;;20.83;81.28;101840.63;7395481;19;20392;-61
2023/07/10 03:11:03;;;;;;;16.42;11.27;;;;;;;20.87;81.26;101854.63;7395370;19;20018;-62
2023/07/10 03:13:31;;;;;;;;;;;;;;;20.84;81.40;101852.28;7396310;19;20014;-62
2023/07/10 03:16:07;;;;;;;20.92;13.82;;;;;;;20.89;80.75;101849.97;7391874;19;19922;-60
2023/07/10 03:18:36;;;;;;;18.55;12.85;;;;;;;20.83;81.04;101861.31;7395117;19;20022;-60
2023/07/10 03:21:04;;;;;;;19.25;14.45;;;;;;;20.88;80.81;101865.28;7394769;19;20124;-61
2023/07/10 03:23:32;;;;;;;19.65;14.75;;;;;;;20.91;80.68;101854.19;7391020;19;20385;-62
2023/07/10 03:25:59;;;;;;;18.20;14.20;;;;;;;20.94;80.12;101851.16;7392253;19;20500;-61
2023/07/10 03:28:28;;;;;;;17.40;14.10;;;;;;;20.94;80.06;101859.25;7395245;19;20038;-60
2023/07/10 03:30:58;;;;;;;17.70;13.10;;;;;;;20.97;80.25;101871.56;7394708;19;20018;-61
2023/07/10 03:33:25;;;;;;;19.27;14.60;;;;;;;20.90;80.42;101871.34;7394746;19;20070;-61
2023/07/10 03:36:01;;;;;;;17.33;14.90;;;;;;;20.99;80.15;101879.53;7392165;19;20019;-61
2023/07/10 03:38:29;;;;;;;18.75;13.60;;;;;;;20.98;79.99;101877.81;7395350;19;20444;-61
2023/07/10 03:40:57;;;;;;;18.50;15.23;;;;;;;21.00;80.20;101876.66;7392574;19;20094;-61
2023/07/10 03:43:26;;;;;;;19.45;15.63;;;;;;;21.03;79.95;101860.19;7392328;19;20035;-62
2023/07/10 03:45:54;;;;;;;20.85;16.25;;;;;;;21.03;80.08;101851.28;7391758;19;20022;-62
2023/07/10 03:48:21;;;;;;;18.05;15.05;;;;;;;21.01;80.03;101848.72;7394282;19;20423;-61
2023/07/10 03:50:49;;;;;;;20.02;16.33;;;;;;;21.02;80.23;101847.72;7394064;19;20353;-60
2023/07/10 03:53:16;;;;;;;21.70;16.52;;;;;;;21.03;80.31;101852.13;7394036;19;20035;-62
2023/07/10 03:55:52;;;;;;;21.02;16.77;;;;;;;21.07;79.84;101844.56;7390527;19;20014;-62
2023/07/10 03:58:25;;;;;;;20.95;17.27;;;;;;;21.00;80.27;101843.50;7393653;19;20483;-62
2023/07/10 04:00:52;;;;;;;19.95;16.40;;;;;;;21.00;80.54;101848.88;7393821;19;20022;-62
2023/07/10 04:03:21;;;;;;;19.77;15.27;;;;;;;20.94;80.36;101840.41;7391748;19;20014;-61
2023/07/10 04:05:52;;;;;;;22.73;17.23;;;;;;;;;;7390344;19;20033;-61
2023/07/10 04:08:20;;;;;;;19.88;15.80;;;;;;;21.08;79.95;101838.19;7394057;19;20028;-62
2023/07/10 04:10:52;;;;;;;20.02;15.40;;;;;;;21.07;79.92;101848.09;7393684;19;20022;-62
2023/07/10 04:13:19;;;;;;;20.83;14.73;;;;;;;21.07;79.91;101860.75;7392868;19;20014;-62
2023/07/10 04:16:09;;;;;;;20.63;14.20;;;;;;;21.16;79.46;101854.41;7391426;19;20034;-62
2023/07/10 04:18:39;;;;;;;18.88;13.48;;;;;;;21.08;80.40;101827.41;7392637;19;20023;-62
2023/07/10 04:21:11;;;;;;;18.45;13.57;;;;;;;21.15;80.19;101832.00;7392726;19;20037;-62
2023/07/10 04:23:39;;;;;;;19.17;13.67;;;;;;;21.04;80.32;101839.50;7390779;19;20114;-62
2023/07/10 04:26:12;;;;;;;16.90;11.90;;;;;;;20.99;80.34;101874.97;7388547;19;20278;-63
2023/07/10 04:28:39;;;;;;;20.48;13.65;;;;;;;20.90;80.61;101890.19;7389625;19;20110;-62
2023/07/10 04:31:06;;;;;;;20.95;16.55;;;;;;;20.86;81.38;101887.94;7392320;19;20018;-62
2023/07/10 04:33:33;;;;;;;26.95;17.92;;;;;;;20.83;81.42;101896.34;7392445;19;20031;-63
2023/07/10 04:36:01;;;;;;;25.27;17.95;;;;;;;20.75;81.60;101891.72;7390650;19;20456;-62
2023/07/10 04:38:29;;;;;;;24.90;18.73;;;;;;;20.82;81.36;101887.41;7392041;19;20018;-62
2023/07/10 04:41:02;;;;;;;25.58;17.55;;;;;;;20.86;81.36;101878.03;7392573;19;20125;-62
2023/07/10 04:43:32;;;;;;;23.15;16.63;;;;;;;20.81;81.53;101874.13;7390220;19;20119;-62
2023/07/10 04:46:07;;;;;;;24.58;16.80;;;;;;;20.91;81.08;101880.28;7390007;19;20022;-62
2023/07/10 04:48:34;;;;;;;23.45;16.15;;;;;;;20.91;81.46;101877.59;7391940;19;20018;-63
2023/07/10 04:51:04;;;;;;;19.95;14.77;;;;;;;20.95;81.05;101860.13;7392606;19;20048;-62
2023/07/10 04:53:32;;;;;;;15.88;12.32;;;;;;;20.90;81.15;101870.50;7391211;19;20018;-62
2023/07/10 04:56:05;;;;;;;17.70;10.57;;;;;;;20.89;81.73;101866.13;7388125;19;20476;-62
2023/07/10 04:58:55;;;;;;;13.00;8.38;;;;;;;20.88;81.74;101859.88;7392036;19;20031;-62
2023/07/10 05:01:34;;;;;;;11.80;7.90;;;;;;;20.71;82.15;101849.09;7390909;19;20022;-65
2023/07/10 05:04:02;;;;;;;11.90;7.75;;;;;;;20.74;81.71;101863.09;7390034;19;20018;-65
2023/07/10 05:06:30;;;;;;;9.70;6.63;;;;;;;20.81;81.71;101863.34;7389473;19;20018;-61
2023/07/10 05:08:58;;;;;;;12.32;7.93;;;;;;;20.82;81.59;101863.19;7391861;19;20026;-60
2023/07/10 05:11:28;;;;;;;13.07;7.32;;;;;;;20.86;80.91;101866.41;7390907;19;20031;-60
2023/07/10 05:13:57;;;;;;;11.25;7.70;;;;;;;20.84;81.18;101865.72;7391314;19;20018;-58
2023/07/10 05:16:24;;;;;;;13.45;8.35;;;;;;;20.89;80.89;101869.66;7388798;19;20022;-57
2023/07/10 05:18:51;;;;;;;12.50;7.93;;;;;;;20.90;80.96;101875.88;7390720;19;20495;-58
2023/07/10 05:21:19;;;;;;;11.35;8.10;;;;;;;20.93;81.06;101881.81;7391413;19;20011;-58
2023/07/10 05:23:46;;;;;;;13.40;8.35;;;;;;;20.93;80.85;101889.03;7389753;19;20018;-59
2023/07/10 05:26:16;;;;;;;14.63;9.20;;;;;;;20.97;80.54;101887.72;7388762;19;20042;-59
2023/07/10 05:28:44;;;;;;;13.65;9.15;;;;;;;20.92;80.65;101903.50;7390503;19;20558;-61
2023/07/10 05:31:12;;;;;;;13.15;8.65;;;;;;;20.94;80.89;101904.19;7391084;19;20326;-61
2023/07/10 05:33:40;;;;;;;13.60;9.38;;;;;;;20.92;80.56;101908.91;7390798;19;20031;-59
2023/07/10 05:36:11;;;;;;;16.05;9.55;;;;;;;20.94;80.65;101896.97;7389702;19;20023;-59
2023/07/10 05:38:39;;;;;;;15.93;10.95;;;;;;;20.92;80.69;101896.28;7389737;19;20082;-62
2023/07/10 05:41:06;;;;;;;17.30;10.65;;;;;;;20.94;80.54;101891.56;7390694;19;20041;-61
2023/07/10 05:43:35;;;;;;;15.55;11.45;;;;;;;20.99;80.08;101884.91;7389134;19;20087;-61
2023/07/10 05:46:03;;;;;;;19.58;12.98;;;;;;;20.93;80.49;101883.66;7387971;19;20025;-61
2023/07/10 05:48:31;;;;;;;17.42;11.70;;;;;;;20.96;80.68;101891.44;7390491;19;20018;-58
2023/07/10 05:50:59;;;;;;;18.73;11.77;;;;;;;20.97;81.16;101894.97;7390306;19;20029;-59
2023/07/10 05:53:27;;;;;;;20.40;12.35;;;;;;;20.95;80.96;101905.91;7390686;19;20027;-58
2023/07/10 05:55:56;;;;;;;21.65;13.10;;;;;;;20.94;80.89;101904.19;7388514;19;20035;-58
2023/07/10 05:58:27;;;;;;;19.05;12.40;;;;;;;20.91;80.69;101913.44;7390449;19;20094;-58
2023/07/10 06:00:59;;;;;;;18.77;11.70;;;;;;;20.96;80.69;101912.97;7390707;19;20015;-57
2023/07/10 06:03:30;;;;;;;16.88;10.50;;;;;;;;;;7388754;19;20415;-58
2023/07/10 06:06:03;;;;;;;16.00;9.23;;;;;;;21.00;80.31;101910.84;7388704;19;20056;-57
2023/07/10 06:08:32;;;;;;;17.38;10.82;;;;;;;21.01;80.94;101909.81;7389937;19;20035;-58
2023/07/10 06:11:00;;;;;;;17.52;10.50;;;;;;;21.07;80.86;101915.44;7389940;19;20365;-58
2023/07/10 06:13:28;;;;;;;16.58;9.60;;;;;;;21.09;80.28;101917.97;7389524;19;20483;-58
2023/07/10 06:15:57;;;;;;;17.00;9.70;;;;;;;21.20;79.86;101920.44;7387733;19;20025;-58
2023/07/10 06:18:26;;;;;;;14.57;8.95;;;;;;;21.31;79.65;101925.59;7388867;19;20023;-56
2023/07/10 06:20:55;;;;;;;17.70;11.02;;;;;;;21.55;78.96;101929.53;7389622;19;20066;-58
2023/07/10 06:23:24;;;;;;;18.67;11.05;;;;;;;21.54;79.20;101944.88;7387913;19;20015;-58
2023/07/10 06:25:51;;;;;;;18.05;11.20;;;;;;;21.52;79.74;101949.59;7387354;19;20031;-58
2023/07/10 06:28:19;;;;;;;18.83;11.15;;;;;;;21.54;79.64;101944.88;7389668;19;20038;-58
2023/07/10 06:30:59;;;;;;;17.13;10.45;;;;;;;21.55;78.82;101945.72;7387416;19;20085;-58
2023/07/10 06:33:28;;;;;;;16.63;9.10;;;;;;;21.60;78.57;101935.34;7389147;19;20019;-58
2023/07/10 06:35:55;;;;;;;17.90;9.02;;;;;;;21.57;78.48;101932.94;7387710;19;20019;-58
2023/07/10 06:38:23;;;;;;;14.75;9.30;;;;;;;21.66;78.10;101930.13;7388462;19;20025;-58
2023/07/10 06:40:51;;;;;;;14.93;9.75;;;;;;;21.72;78.21;101923.28;7388701;19;20484;-59
2023/07/10 06:43:20;;;;;;;12.27;7.43;;;;;;;21.64;78.08;101924.06;7387701;19;20032;-60
2023/07/10 06:45:47;;;;;;;14.40;8.20;;;;;;;21.60;77.42;101921.84;7386859;19;20082;-61
2023/07/10 06:48:14;;;;;;;16.42;8.07;;;;;;;21.63;77.78;101919.66;7389209;19;20025;-62
2023/07/10 06:50:49;;;;;;;13.48;7.25;;;;;;;21.80;77.29;101922.50;7390197;19;20017;-63
2023/07/10 06:53:16;;;;;;;15.00;8.25;;;;;;;21.75;77.11;101936.47;7396838;19;20033;-63
2023/07/10 06:55:58;;;;;;;19.33;8.38;;;;;;;21.63;77.09;101937.69;7393071;19;20086;-62
2023/07/10 06:58:27;;;;;;;15.27;7.78;;;;;;;21.52;77.75;101940.63;7396172;19;20393;-63
2023/07/10 07:00:54;;;;;;;15.40;7.38;;;;;;;21.51;77.68;101938.94;7395682;19;20035;-60
2023/07/10 07:03:22;;;;;;;14.93;7.35;;;;;;;21.55;77.37;101940.31;7394933;19;20014;-60
2023/07/10 07:05:51;;;;;;;13.13;6.72;;;;;;;21.75;76.38;101947.25;7393209;19;20486;-60
2023/07/10 07:08:19;;;;;;;13.00;6.28;;;;;;;21.81;76.29;101945.75;7393569;19;20495;-61
2023/07/10 07:10:49;;;;;;;12.95;6.45;;;;;;;21.97;76.08;101945.03;7395748;19;20033;-61
2023/07/10 07:13:17;;;;;;;13.00;5.78;;;;;;;21.94;75.69;101940.81;7395411;19;20026;-63
2023/07/10 07:15:55;;;;;;;11.90;5.80;;;;;;;21.90;75.03;101952.88;7391577;19;20034;-63
2023/07/10 07:18:24;;;;;;;11.07;5.30;;;;;;;21.94;74.66;101951.59;7395409;19;20019;-61
2023/07/10 07:20:55;;;;;;;11.95;5.10;;;;;;;22.12;73.68;101956.91;7394896;19;20014;-61
2023/07/10 07:23:23;;;;;;;11.20;4.85;;;;;;;22.08;73.44;101958.25;7394704;19;20023;-59
2023/07/10 07:25:53;;;;;;;10.65;4.65;;;;;;;21.99;73.15;101957.34;7392673;19;20057;-59
2023/07/10 07:28:21;;;;;;;11.73;4.50;;;;;;;22.06;72.63;101953.03;7393523;19;20022;-62
2023/07/10 07:30:48;;;;;;;9.95;4.13;;;;;;;22.11;71.93;101953.38;7394426;19;20025;-68
2023/07/10 07:33:18;;;;;;;11.85;3.97;;;;;;;22.07;71.66;101957.41;7394776;19;20054;-69
2023/07/10 07:35:46;;;;;;;6.95;3.22;;;;;;;22.06;71.89;101950.31;7392414;19;20221;-63
2023/07/10 07:38:15;;;;;;;8.15;3.65;;;;;;;22.06;71.74;101955.72;7394641;19;20038;-62
2023/07/10 07:40:42;;;;;;;6.85;3.15;;;;;;;21.88;71.99;101953.06;7393745;19;20018;-63
2023/07/10 07:43:09;;;;;;;7.60;2.88;;;;;;;21.79;71.79;101953.19;7392886;19;20059;-63
2023/07/10 07:45:37;;;;;;;6.28;3.00;;;;;;;21.76;71.42;101951.63;7391638;19;20078;-58
2023/07/10 07:48:04;;;;;;;6.63;2.55;;;;;;;22.02;69.69;101957.03;7393174;19;20022;-59
2023/07/10 07:50:31;;;;;;;7.10;3.30;;;;;;;22.14;69.05;101952.25;7393403;19;20015;-58
2023/07/10 07:52:59;;;;;;;6.57;3.08;;;;;;;22.17;69.37;101945.66;7394194;19;20030;-58
2023/07/10 07:55:26;;;;;;;8.13;2.85;;;;;;;22.19;69.31;101954.47;7389949;19;20463;-58
2023/07/10 07:57:53;;;;;;;9.43;3.55;;;;;;;22.28;69.55;101964.28;7391920;19;20082;-58
2023/07/10 08:00:20;;;;;;;7.07;2.97;;;;;;;22.28;69.10;101959.72;7393322;19;20038;-59
2023/07/10 08:02:49;;;;;;;6.90;3.03;;;;;;;22.26;69.17;101961.75;7394084;19;20023;-58
2023/07/10 08:05:17;;;;;;;6.47;2.85;;;;;;;22.31;69.50;101961.28;7392479;19;20019;-59
2023/07/10 08:08:02;;;;;;;7.47;2.92;;;;;;;22.39;69.03;101964.84;7394671;19;20334;-58
2023/07/10 08:10:39;;;;;;;8.10;3.78;;;;;;;22.55;69.19;101966.81;7392891;19;20018;-59
2023/07/10 08:13:07;;;;;;;7.13;3.10;;;;;;;22.54;69.38;101975.91;7393441;19;20022;-60
2023/07/10 08:15:34;;;;;;;7.90;3.40;;;;;;;22.39;69.64;101962.16;7391110;19;20014;-59
2023/07/10 08:18:02;;;;;;;7.72;3.20;;;;;;;22.48;69.30;101973.88;7392592;19;20023;-60
2023/07/10 08:20:29;;;;;;;8.63;3.20;;;;;;;22.52;69.04;101979.78;7393169;19;20022;-59
2023/07/10 08:22:57;;;;;;;10.30;3.60;;;;;;;22.45;68.76;101982.28;7392791;19;20018;-59
2023/07/10 08:25:25;;;;;;;7.28;3.50;;;;;;;22.51;68.51;101988.88;7391524;19;20071;-59
2023/07/10 08:27:52;;;;;;;8.13;3.40;;;;;;;22.49;67.51;101994.44;7392870;19;20018;-59
2023/07/10 08:30:20;;;;;;;8.13;3.17;;;;;;;22.66;66.99;101992.66;7392894;19;20019;-59
2023/07/10 08:32:47;;;;;;;8.32;3.15;;;;;;;22.74;66.17;101994.56;7393732;19;20023;-59
2023/07/10 08:35:14;;;;;;;6.95;3.33;;;;;;;22.56;66.50;101994.66;7389438;19;20018;-59
2023/07/10 08:37:41;;;;;;;5.75;2.70;;;;;;;22.51;66.86;102000.56;7396254;19;20078;-59
2023/07/10 08:40:36;;;;;;;8.02;2.80;;;;;;;22.49;65.85;102002.53;7392218;19;20082;-59
2023/07/10 08:43:20;;;;;;;4.57;2.65;;;;;;;22.50;65.26;102008.78;7391513;19;20090;-59
2023/07/10 08:45:47;;;;;;;10.23;3.53;;;;;;;22.39;66.34;102007.22;7390985;19;20023;-59
2023/07/10 08:48:30;;;;;;;8.02;3.60;;;;;;;22.58;66.20;102008.81;7391358;19;20019;-59
2023/07/10 08:51:05;;;;;;;8.88;3.67;;;;;;;22.56;66.03;102010.88;7391732;19;20538;-59
2023/07/10 08:53:36;;;;;;;8.77;3.78;;;;;;;22.51;66.75;102005.06;7392668;19;20043;-60
2023/07/10 08:56:09;;;;;;;4.28;2.70;;;;;;;22.49;66.56;102002.53;7389847;19;20047;-60
2023/07/10 08:58:38;;;;;;;5.97;2.90;;;;;;;22.74;65.77;102003.53;7391553;19;20014;-60
2023/07/10 09:01:18;;;;;;;9.88;3.22;;;;;;;22.85;64.97;102005.91;7391361;19;20034;-59
2023/07/10 09:03:48;;;;;;;13.13;3.60;;;;;;;22.99;64.91;102011.75;7391086;19;20014;-63
2023/07/10 09:06:18;;;;;;;6.20;2.80;;;;;;;23.11;63.13;102011.25;7388449;19;20018;-57
2023/07/10 09:08:50;;;;;;;9.98;3.45;;;;;;;23.20;62.89;102013.97;7391430;19;20048;-58
2023/07/10 09:11:18;;;;;;;9.00;4.15;;;;;;;23.13;63.28;102013.81;7391337;19;20093;-59
2023/07/10 09:13:50;;;;;;;6.90;2.90;;;;;;;23.00;63.44;102021.53;7390766;19;20035;-60
2023/07/10 09:16:20;;;;;;;5.90;3.22;;;;;;;22.96;63.31;102018.31;7388987;19;20035;-60
2023/07/10 09:19:09;;;;;;;12.18;4.60;;;;;;;23.19;63.68;102023.13;7391270;19;20014;-60
2023/07/10 09:21:39;;;;;;;8.75;3.53;;;;;;;23.27;63.20;102025.84;7390857;19;20362;-60
2023/07/10 09:24:14;;;;;;;7.45;3.17;;;;;;;23.25;63.14;102033.28;7390316;19;20531;-60
2023/07/10 09:26:42;;;;;;;8.70;3.00;;;;;;;23.17;63.31;102030.56;7388378;19;20026;-59
2023/07/10 09:29:09;;;;;;;7.50;2.58;;;;;;;22.94;63.69;102039.25;7390733;19;20042;-59
2023/07/10 09:31:50;;;;;;;7.75;2.20;;;;;;;22.92;63.03;102035.03;7390273;19;20028;-60
2023/07/10 09:34:23;;;;;;;7.63;2.63;;;;;;;23.11;63.08;102034.75;7391039;19;20018;-59
2023/07/10 09:36:52;;;;;;;4.95;2.25;;;;;;;23.04;62.51;102031.00;7390712;19;20035;-59
2023/07/10 09:39:20;;;;;;;7.18;2.00;;;;;;;22.96;61.65;102034.53;7390480;19;20018;-59
2023/07/10 09:41:48;;;;;;;6.22;2.60;;;;;;;22.93;61.49;102026.75;7390279;19;20055;-59
2023/07/10 09:44:16;;;;;;;3.92;1.80;;;;;;;23.05;60.21;102028.16;7389552;19;20041;-59
2023/07/10 09:46:44;;;;;;;5.75;1.90;;;;;;;23.28;59.82;102027.56;7388491;19;20042;-60
2023/07/10 09:49:32;;;;;;;6.63;1.70;;;;;;;23.57;58.03;102024.38;7390406;19;20094;-60
2023/07/10 09:52:03;;;;;;;9.55;2.25;;;;;;;23.60;57.79;102026.75;7390764;19;20025;-60
2023/07/10 09:54:38;;;;;;;8.85;2.30;;;;;;;23.52;57.04;102032.16;7389982;19;20090;-60
2023/07/10 09:57:17;;;;;;;6.55;2.10;;;;;;;23.31;57.75;102036.19;7389627;19;20033;-60
2023/07/10 09:59:50;;;;;;;7.25;2.10;;;;;;;23.11;57.59;102042.84;7390103;19;20022;-60
2023/07/10 10:02:22;;;;;;;;;;;;;;;22.90;57.36;102029.75;7390868;19;20090;-60
2023/07/10 10:05:15;;;;;;;7.07;1.77;;;;;;;22.86;58.99;102028.41;7388323;19;19918;-60
2023/07/10 10:07:45;;;;;;;11.60;2.47;;;;;;;22.94;58.96;102031.16;7389836;19;20046;-59
2023/07/10 10:10:29;;;;;;;11.13;2.70;;;;;;;22.93;56.27;102026.75;7390238;19;20025;-59
2023/07/10 10:13:04;;;;;;;5.78;2.08;;;;;;;22.91;56.35;102023.38;7390008;19;20025;-58
2023/07/10 10:15:48;;;;;;;7.20;1.60;;;;;;;22.96;52.71;102033.69;7387298;19;20014;-60
2023/07/10 10:18:19;;;;;;;;;;;;;;;22.86;53.01;102026.53;7390351;19;20019;-60
2023/07/10 10:20:48;;;;;;;7.93;2.38;;;;;;;22.90;55.59;102035.16;7389783;19;19939;-59
2023/07/10 10:23:29;;;;;;;5.93;1.80;;;;;;;23.05;55.65;102035.41;7390028;19;20029;-59
2023/07/10 10:26:29;;;;;;;7.32;2.03;;;;;;;23.08;55.78;102032.38;7390386;19;20022;-59
2023/07/10 10:29:06;;;;;;;5.05;1.63;;;;;;;23.13;55.61;102048.13;7396414;19;20015;-60
2023/07/10 10:31:40;;;;;;;5.97;1.95;;;;;;;23.21;54.45;102053.53;7397119;19;20022;-59
2023/07/10 10:34:30;;;;;;;6.15;1.80;;;;;;;23.41;52.80;102049.53;7395461;19;20047;-59
2023/07/10 10:37:16;;;;;;;8.27;1.88;;;;;;;23.37;53.53;102058.16;7398686;19;20014;-59
2023/07/10 10:39:52;;;;;;;6.38;1.88;;;;;;;23.43;54.14;102058.34;7396610;19;20015;-59
2023/07/10 10:42:32;;;;;;;5.82;1.52;;;;;;;23.49;54.09;102048.69;7396022;19;20038;-59
2023/07/10 10:45:18;;;;;;;3.40;1.50;;;;;;;23.50;53.53;102042.28;7393447;19;20047;-59
2023/07/10 10:47:55;;;;;;;7.63;1.60;;;;;;;23.48;53.28;102050.56;7396472;19;20366;-59
2023/07/10 10:50:38;;;;;;;6.70;1.88;;;;;;;23.64;52.81;102047.03;7395953;19;20494;-59
2023/07/10 10:53:29;;;;;;;5.30;1.83;;;;;;;23.66;52.32;102052.25;7395375;19;20035;-59
2023/07/10 10:56:32;;;;;;;6.15;1.80;;;;;;;23.77;52.56;102043.84;7393683;19;20090;-60
2023/07/10 10:59:06;;;;;;;6.20;1.98;;;;;;;23.89;52.84;102058.78;7394967;19;20059;-60
2023/07/10 11:01:50;;;;;;;8.68;2.30;;;;;;;23.91;52.06;102045.91;7395520;19;20018;-60
2023/07/10 11:04:43;;;;;;;6.70;1.85;;;;;;;23.92;52.81;102049.44;7395062;19;20010;-59
2023/07/10 11:07:13;;;;;;;6.30;2.38;;;;;;;23.75;52.99;102051.31;7395450;19;20022;-60
2023/07/10 11:10:21;;;;;;;6.78;2.13;;;;;;;23.60;53.03;102046.53;7394725;19;20023;-60
2023/07/10 11:12:49;;;;;;;7.65;2.08;;;;;;;23.49;54.00;102051.41;7393066;19;20048;-60
2023/07/10 11:15:19;;;;;;;6.07;2.00;;;;;;;23.59;53.84;102055.66;7391052;19;20018;-61
2023/07/10 11:17:50;;;;;;;5.93;1.90;;;;;;;23.77;53.16;102049.25;7394396;19;20035;-60
2023/07/10 11:20:18;;;;;;;5.72;1.75;;;;;;;24.15;52.92;102044.19;7393896;19;20019;-59
2023/07/10 11:22:54;;;;;;;8.60;1.95;;;;;;;24.27;52.00;102045.56;7393663;19;20026;-59
2023/07/10 11:25:57;;;;;;;5.00;1.90;;;;;;;24.26;52.52;102041.97;7391046;19;20045;-59
2023/07/10 11:28:31;;;;;;;7.28;1.67;;;;;;;24.35;52.29;102052.81;7394091;19;20025;-60
2023/07/10 11:31:23;;;;;;;5.65;1.52;;;;;;;24.26;51.40;102050.09;7393458;19;20176;-60
2023/07/10 11:34:05;;;;;;;5.95;1.80;;;;;;;24.26;51.70;102054.66;7394242;19;20019;-60
2023/07/10 11:36:32;;;;;;;5.22;1.77;;;;;;;24.44;51.94;102049.09;7392507;19;20014;-62
2023/07/10 11:39:05;;;;;;;7.15;1.90;;;;;;;24.61;50.74;102058.00;7394118;19;20018;-60